sensor_id;sensor_type;location;lat;lon;timestamp;temperature;humidity
16781;DHT22;8507;50.056;8.248;2022-12-18T00:01:04;-5.20;99.90
16781;DHT22;8507;50.056;8.248;2022-12-18T00:03:33;-5.20;99.90
16781;DHT22;8507;50.056;8.248;2022-12-18T00:06:00;-5.10;99.90
16781;DHT22;8507;50.056;8.248;2022-12-18T00:08:27;-5.40;99.90
16781;DHT22;8507;50.056;8.248;2022-12-18T00:10:52;-5.30;99.90
16781;DHT22;8507;50.056;8.248;2022-12-18T00:13:18;-5.40;99.90
16781;DHT22;8507;50.056;8.248;2022-12-18T00:15:43;-5.50;99.90
16781;DHT22;8507;50.056;8.248;2022-12-18T00:18:09;-5.80;99.90
16781;DHT22;8507;50.056;8.248;2022-12-18T00:20:39;-5.90;99.90
16781;DHT22;8507;50.056;8.248;2022-12-18T00:23:06;-5.80;99.90
16781;DHT22;8507;50.056;8.248;2022-12-18T00:25:36;-5.60;99.90
16781;DHT22;8507;50.056;8.248;2022-12-18T00:28:03;-5.80;99.90
16781;DHT22;8507;50.056;8.248;2022-12-18T00:30:29;-6.10;99.90
16781;DHT22;8507;50.056;8.248;2022-12-18T00:32:55;-6.30;99.90
16781;DHT22;8507;50.056;8.248;2022-12-18T00:35:21;-6.40;99.90
16781;DHT22;8507;50.056;8.248;2022-12-18T00:37:47;-6.50;99.90
16781;DHT22;8507;50.056;8.248;2022-12-18T00:40:12;-6.40;99.90
16781;DHT22;8507;50.056;8.248;2022-12-18T00:42:38;-6.50;99.90
16781;DHT22;8507;50.056;8.248;2022-12-18T00:45:29;-6.40;99.90
16781;DHT22;8507;50.056;8.248;2022-12-18T00:47:56;-6.30;99.90
16781;DHT22;8507;50.056;8.248;2022-12-18T00:50:23;-6.20;99.90
16781;DHT22;8507;50.056;8.248;2022-12-18T00:52:49;-6.00;99.90
16781;DHT22;8507;50.056;8.248;2022-12-18T00:55:15;-6.00;99.90
16781;DHT22;8507;50.056;8.248;2022-12-18T00:57:41;-5.90;99.90
16781;DHT22;8507;50.056;8.248;2022-12-18T01:00:10;-5.90;99.90
16781;DHT22;8507;50.056;8.248;2022-12-18T01:02:36;-5.90;99.90
16781;DHT22;8507;50.056;8.248;2022-12-18T01:05:02;-5.90;99.90
16781;DHT22;8507;50.056;8.248;2022-12-18T01:07:28;-5.80;99.90
16781;DHT22;8507;50.056;8.248;2022-12-18T01:09:53;-6.00;99.90
16781;DHT22;8507;50.056;8.248;2022-12-18T01:12:19;-6.10;99.90
16781;DHT22;8507;50.056;8.248;2022-12-18T01:14:44;-6.00;99.90
16781;DHT22;8507;50.056;8.248;2022-12-18T01:17:10;-6.00;99.90
16781;DHT22;8507;50.056;8.248;2022-12-18T01:19:35;-5.90;99.90
16781;DHT22;8507;50.056;8.248;2022-12-18T01:22:01;-6.00;99.90
16781;DHT22;8507;50.056;8.248;2022-12-18T01:24:26;-6.00;99.90
16781;DHT22;8507;50.056;8.248;2022-12-18T01:26:52;-6.10;99.90
16781;DHT22;8507;50.056;8.248;2022-12-18T01:29:17;-6.20;99.90
16781;DHT22;8507;50.056;8.248;2022-12-18T01:31:43;-6.20;99.90
16781;DHT22;8507;50.056;8.248;2022-12-18T01:34:09;-6.10;99.90
16781;DHT22;8507;50.056;8.248;2022-12-18T01:36:36;-6.10;99.90
16781;DHT22;8507;50.056;8.248;2022-12-18T01:39:07;-6.00;99.90
16781;DHT22;8507;50.056;8.248;2022-12-18T01:41:35;-6.00;99.90
16781;DHT22;8507;50.056;8.248;2022-12-18T01:47:41;-6.00;99.90
16781;DHT22;8507;50.056;8.248;2022-12-18T01:50:13;-6.00;99.90
16781;DHT22;8507;50.056;8.248;2022-12-18T01:52:42;-6.10;99.90
16781;DHT22;8507;50.056;8.248;2022-12-18T01:55:09;-6.10;99.90
16781;DHT22;8507;50.056;8.248;2022-12-18T01:57:36;-6.20;99.90
16781;DHT22;8507;50.056;8.248;2022-12-18T02:00:13;-6.20;99.90
16781;DHT22;8507;50.056;8.248;2022-12-18T02:02:41;-6.30;99.90
16781;DHT22;8507;50.056;8.248;2022-12-18T02:05:07;-6.30;99.90
16781;DHT22;8507;50.056;8.248;2022-12-18T02:10:08;-6.30;99.90
16781;DHT22;8507;50.056;8.248;2022-12-18T02:12:42;-6.30;99.90
16781;DHT22;8507;50.056;8.248;2022-12-18T02:15:29;-6.50;99.90
16781;DHT22;8507;50.056;8.248;2022-12-18T02:18:10;-6.60;99.90
16781;DHT22;8507;50.056;8.248;2022-12-18T02:20:47;-6.60;99.90
16781;DHT22;8507;50.056;8.248;2022-12-18T02:29:00;-6.90;99.90
16781;DHT22;8507;50.056;8.248;2022-12-18T02:31:31;-6.80;99.90
16781;DHT22;8507;50.056;8.248;2022-12-18T02:34:02;-6.90;99.90
16781;DHT22;8507;50.056;8.248;2022-12-18T02:36:29;-6.90;99.90
16781;DHT22;8507;50.056;8.248;2022-12-18T02:38:58;-7.00;99.90
16781;DHT22;8507;50.056;8.248;2022-12-18T02:41:25;-7.10;99.90
16781;DHT22;8507;50.056;8.248;2022-12-18T02:43:57;-7.10;99.90
16781;DHT22;8507;50.056;8.248;2022-12-18T02:46:35;-7.20;99.90
16781;DHT22;8507;50.056;8.248;2022-12-18T02:57:55;-6.80;99.90
16781;DHT22;8507;50.056;8.248;2022-12-18T03:00:27;-6.70;99.90
16781;DHT22;8507;50.056;8.248;2022-12-18T03:02:59;-6.60;99.90
16781;DHT22;8507;50.056;8.248;2022-12-18T03:05:39;-6.60;99.90
16781;DHT22;8507;50.056;8.248;2022-12-18T03:08:08;-6.70;99.90
16781;DHT22;8507;50.056;8.248;2022-12-18T03:10:40;-7.10;99.90
16781;DHT22;8507;50.056;8.248;2022-12-18T03:13:10;-7.00;99.90
16781;DHT22;8507;50.056;8.248;2022-12-18T03:15:44;-6.90;99.90
16781;DHT22;8507;50.056;8.248;2022-12-18T03:18:25;-6.80;99.90
16781;DHT22;8507;50.056;8.248;2022-12-18T03:20:53;-6.90;99.90
16781;DHT22;8507;50.056;8.248;2022-12-18T03:23:24;-6.80;99.90
16781;DHT22;8507;50.056;8.248;2022-12-18T03:25:55;-6.80;99.90
16781;DHT22;8507;50.056;8.248;2022-12-18T03:28:22;-6.80;99.90
16781;DHT22;8507;50.056;8.248;2022-12-18T03:30:53;-6.80;99.90
16781;DHT22;8507;50.056;8.248;2022-12-18T03:33:27;-6.90;99.90
16781;DHT22;8507;50.056;8.248;2022-12-18T03:35:55;-7.00;99.90
16781;DHT22;8507;50.056;8.248;2022-12-18T03:38:21;-6.90;99.90
16781;DHT22;8507;50.056;8.248;2022-12-18T03:40:58;-6.80;99.90
16781;DHT22;8507;50.056;8.248;2022-12-18T03:43:37;-6.70;99.90
16781;DHT22;8507;50.056;8.248;2022-12-18T03:46:21;-6.60;99.90
16781;DHT22;8507;50.056;8.248;2022-12-18T03:48:52;-6.60;99.90
16781;DHT22;8507;50.056;8.248;2022-12-18T03:53:59;-6.50;99.90
16781;DHT22;8507;50.056;8.248;2022-12-18T03:56:29;-6.60;99.90
16781;DHT22;8507;50.056;8.248;2022-12-18T03:58:57;-6.60;99.90
16781;DHT22;8507;50.056;8.248;2022-12-18T04:01:36;-6.60;99.90
16781;DHT22;8507;50.056;8.248;2022-12-18T04:04:04;-6.60;99.90
16781;DHT22;8507;50.056;8.248;2022-12-18T04:06:34;-6.80;99.90
16781;DHT22;8507;50.056;8.248;2022-12-18T04:09:00;-6.90;99.90
16781;DHT22;8507;50.056;8.248;2022-12-18T04:11:26;-6.80;99.90
16781;DHT22;8507;50.056;8.248;2022-12-18T04:13:56;-6.90;99.90
16781;DHT22;8507;50.056;8.248;2022-12-18T04:16:23;-6.90;99.90
16781;DHT22;8507;50.056;8.248;2022-12-18T04:18:49;-6.80;99.90
16781;DHT22;8507;50.056;8.248;2022-12-18T04:21:14;-6.70;99.90
16781;DHT22;8507;50.056;8.248;2022-12-18T04:23:40;-6.70;99.90
16781;DHT22;8507;50.056;8.248;2022-12-18T04:26:05;-6.60;99.90
16781;DHT22;8507;50.056;8.248;2022-12-18T04:28:31;-6.50;99.90
16781;DHT22;8507;50.056;8.248;2022-12-18T04:30:56;-6.40;99.90
16781;DHT22;8507;50.056;8.248;2022-12-18T04:33:22;-6.40;99.90
16781;DHT22;8507;50.056;8.248;2022-12-18T04:35:47;-6.40;99.90
16781;DHT22;8507;50.056;8.248;2022-12-18T04:38:13;-6.30;99.90
16781;DHT22;8507;50.056;8.248;2022-12-18T04:40:39;-6.40;99.90
16781;DHT22;8507;50.056;8.248;2022-12-18T04:43:04;-6.40;99.90
16781;DHT22;8507;50.056;8.248;2022-12-18T04:45:31;-6.50;99.90
16781;DHT22;8507;50.056;8.248;2022-12-18T04:48:00;-6.50;99.90
16781;DHT22;8507;50.056;8.248;2022-12-18T04:50:26;-6.50;99.90
16781;DHT22;8507;50.056;8.248;2022-12-18T04:52:52;-6.40;99.90
16781;DHT22;8507;50.056;8.248;2022-12-18T04:55:18;-6.40;99.90
16781;DHT22;8507;50.056;8.248;2022-12-18T04:57:44;-6.30;99.90
16781;DHT22;8507;50.056;8.248;2022-12-18T05:00:10;-6.30;99.90
16781;DHT22;8507;50.056;8.248;2022-12-18T05:02:36;-6.30;99.90
16781;DHT22;8507;50.056;8.248;2022-12-18T05:05:01;-6.30;99.90
16781;DHT22;8507;50.056;8.248;2022-12-18T05:07:27;-6.30;99.90
16781;DHT22;8507;50.056;8.248;2022-12-18T05:09:52;-6.20;99.90
16781;DHT22;8507;50.056;8.248;2022-12-18T05:12:18;-6.20;99.90
16781;DHT22;8507;50.056;8.248;2022-12-18T05:14:43;-6.20;99.90
16781;DHT22;8507;50.056;8.248;2022-12-18T05:17:09;-6.10;99.90
16781;DHT22;8507;50.056;8.248;2022-12-18T05:19:34;-6.10;99.90
16781;DHT22;8507;50.056;8.248;2022-12-18T05:22:00;-6.00;99.90
16781;DHT22;8507;50.056;8.248;2022-12-18T05:24:26;-6.10;99.90
16781;DHT22;8507;50.056;8.248;2022-12-18T05:26:52;-6.00;99.90
16781;DHT22;8507;50.056;8.248;2022-12-18T05:29:17;-6.00;99.90
16781;DHT22;8507;50.056;8.248;2022-12-18T05:31:43;-6.00;99.90
16781;DHT22;8507;50.056;8.248;2022-12-18T05:34:08;-6.00;99.90
16781;DHT22;8507;50.056;8.248;2022-12-18T05:36:34;-5.90;99.90
16781;DHT22;8507;50.056;8.248;2022-12-18T05:39:00;-5.90;99.90
16781;DHT22;8507;50.056;8.248;2022-12-18T05:41:26;-6.00;99.90
16781;DHT22;8507;50.056;8.248;2022-12-18T05:43:51;-6.10;99.90
16781;DHT22;8507;50.056;8.248;2022-12-18T05:46:17;-6.10;99.90
16781;DHT22;8507;50.056;8.248;2022-12-18T05:48:44;-6.10;99.90
16781;DHT22;8507;50.056;8.248;2022-12-18T05:51:12;-6.00;99.90
16781;DHT22;8507;50.056;8.248;2022-12-18T05:53:38;-6.00;99.90
16781;DHT22;8507;50.056;8.248;2022-12-18T05:56:06;-5.90;99.90
16781;DHT22;8507;50.056;8.248;2022-12-18T05:58:32;-6.10;99.90
16781;DHT22;8507;50.056;8.248;2022-12-18T06:01:05;-6.10;99.90
16781;DHT22;8507;50.056;8.248;2022-12-18T06:03:31;-6.00;99.90
16781;DHT22;8507;50.056;8.248;2022-12-18T06:05:56;-5.90;99.90
16781;DHT22;8507;50.056;8.248;2022-12-18T06:08:22;-5.90;99.90
16781;DHT22;8507;50.056;8.248;2022-12-18T06:10:51;-5.90;99.90
16781;DHT22;8507;50.056;8.248;2022-12-18T06:13:18;-5.90;99.90
16781;DHT22;8507;50.056;8.248;2022-12-18T06:15:44;-5.90;99.90
16781;DHT22;8507;50.056;8.248;2022-12-18T06:18:09;-5.90;99.90
16781;DHT22;8507;50.056;8.248;2022-12-18T06:20:35;-5.90;99.90
16781;DHT22;8507;50.056;8.248;2022-12-18T06:23:03;-5.90;99.90
16781;DHT22;8507;50.056;8.248;2022-12-18T06:25:28;-5.90;99.90
16781;DHT22;8507;50.056;8.248;2022-12-18T06:27:54;-5.90;99.90
16781;DHT22;8507;50.056;8.248;2022-12-18T06:30:20;-6.00;99.90
16781;DHT22;8507;50.056;8.248;2022-12-18T06:32:45;-6.20;99.90
16781;DHT22;8507;50.056;8.248;2022-12-18T06:35:11;-6.30;99.90
16781;DHT22;8507;50.056;8.248;2022-12-18T06:37:36;-6.20;99.90
16781;DHT22;8507;50.056;8.248;2022-12-18T06:40:02;-6.10;99.90
16781;DHT22;8507;50.056;8.248;2022-12-18T06:42:28;-6.10;99.90
16781;DHT22;8507;50.056;8.248;2022-12-18T06:44:54;-6.10;99.90
16781;DHT22;8507;50.056;8.248;2022-12-18T06:47:20;-6.10;99.90
16781;DHT22;8507;50.056;8.248;2022-12-18T06:49:45;-6.00;99.90
16781;DHT22;8507;50.056;8.248;2022-12-18T06:52:11;-6.10;99.90
16781;DHT22;8507;50.056;8.248;2022-12-18T06:54:36;-6.10;99.90
16781;DHT22;8507;50.056;8.248;2022-12-18T06:57:02;-6.10;99.90
16781;DHT22;8507;50.056;8.248;2022-12-18T06:59:27;-6.10;99.90
16781;DHT22;8507;50.056;8.248;2022-12-18T07:01:53;-6.10;99.90
16781;DHT22;8507;50.056;8.248;2022-12-18T07:04:19;-6.00;99.90
16781;DHT22;8507;50.056;8.248;2022-12-18T07:06:44;-5.90;99.90
16781;DHT22;8507;50.056;8.248;2022-12-18T07:09:10;-5.90;99.90
16781;DHT22;8507;50.056;8.248;2022-12-18T07:11:35;-5.90;99.90
16781;DHT22;8507;50.056;8.248;2022-12-18T07:14:01;-5.80;99.90
16781;DHT22;8507;50.056;8.248;2022-12-18T07:16:26;-5.90;99.90
16781;DHT22;8507;50.056;8.248;2022-12-18T07:18:54;-5.80;99.90
16781;DHT22;8507;50.056;8.248;2022-12-18T07:21:22;-5.90;99.90
16781;DHT22;8507;50.056;8.248;2022-12-18T07:23:50;-6.10;99.90
16781;DHT22;8507;50.056;8.248;2022-12-18T07:26:18;-6.30;99.90
16781;DHT22;8507;50.056;8.248;2022-12-18T07:28:43;-6.50;99.90
16781;DHT22;8507;50.056;8.248;2022-12-18T07:31:12;-6.70;99.90
16781;DHT22;8507;50.056;8.248;2022-12-18T07:33:38;-6.90;99.90
16781;DHT22;8507;50.056;8.248;2022-12-18T07:36:06;-7.00;99.90
16781;DHT22;8507;50.056;8.248;2022-12-18T07:38:32;-7.10;99.90
16781;DHT22;8507;50.056;8.248;2022-12-18T07:41:06;-7.10;99.90
16781;DHT22;8507;50.056;8.248;2022-12-18T07:43:33;-7.00;99.90
16781;DHT22;8507;50.056;8.248;2022-12-18T07:46:00;-7.00;99.90
16781;DHT22;8507;50.056;8.248;2022-12-18T07:48:25;-6.90;99.90
16781;DHT22;8507;50.056;8.248;2022-12-18T07:50:51;-6.80;99.90
16781;DHT22;8507;50.056;8.248;2022-12-18T07:53:17;-6.70;99.90
16781;DHT22;8507;50.056;8.248;2022-12-18T07:55:45;-6.60;99.90
16781;DHT22;8507;50.056;8.248;2022-12-18T07:58:11;-6.40;99.90
16781;DHT22;8507;50.056;8.248;2022-12-18T08:00:36;-6.20;99.90
16781;DHT22;8507;50.056;8.248;2022-12-18T08:03:02;-6.10;99.90
16781;DHT22;8507;50.056;8.248;2022-12-18T08:05:28;-6.00;99.90
16781;DHT22;8507;50.056;8.248;2022-12-18T08:07:54;-6.00;99.90
16781;DHT22;8507;50.056;8.248;2022-12-18T08:10:20;-5.90;99.90
16781;DHT22;8507;50.056;8.248;2022-12-18T08:12:49;-5.90;99.90
16781;DHT22;8507;50.056;8.248;2022-12-18T08:15:15;-5.90;99.90
16781;DHT22;8507;50.056;8.248;2022-12-18T08:17:41;-5.90;99.90
16781;DHT22;8507;50.056;8.248;2022-12-18T08:20:07;-5.90;99.90
16781;DHT22;8507;50.056;8.248;2022-12-18T08:22:34;-5.90;99.90
16781;DHT22;8507;50.056;8.248;2022-12-18T08:25:01;-5.80;99.90
16781;DHT22;8507;50.056;8.248;2022-12-18T08:27:26;-5.80;99.90
16781;DHT22;8507;50.056;8.248;2022-12-18T08:29:52;-5.70;99.90
16781;DHT22;8507;50.056;8.248;2022-12-18T08:32:17;-5.60;99.90
16781;DHT22;8507;50.056;8.248;2022-12-18T08:34:43;-5.40;99.90
16781;DHT22;8507;50.056;8.248;2022-12-18T08:37:09;-5.40;99.90
16781;DHT22;8507;50.056;8.248;2022-12-18T08:39:35;-5.20;99.90
16781;DHT22;8507;50.056;8.248;2022-12-18T08:42:01;-5.10;99.90
16781;DHT22;8507;50.056;8.248;2022-12-18T08:44:45;-4.90;99.90
16781;DHT22;8507;50.056;8.248;2022-12-18T08:47:10;-4.80;99.90
16781;DHT22;8507;50.056;8.248;2022-12-18T08:49:36;-4.60;99.90
16781;DHT22;8507;50.056;8.248;2022-12-18T08:52:02;-4.40;99.90
16781;DHT22;8507;50.056;8.248;2022-12-18T08:54:28;-4.20;99.90
16781;DHT22;8507;50.056;8.248;2022-12-18T08:56:54;-4.10;99.90
16781;DHT22;8507;50.056;8.248;2022-12-18T08:59:22;-3.90;99.90
16781;DHT22;8507;50.056;8.248;2022-12-18T09:01:49;-3.80;99.90
16781;DHT22;8507;50.056;8.248;2022-12-18T09:04:15;-3.80;99.90
16781;DHT22;8507;50.056;8.248;2022-12-18T09:06:41;-3.80;99.90
16781;DHT22;8507;50.056;8.248;2022-12-18T09:09:06;-3.70;99.90
16781;DHT22;8507;50.056;8.248;2022-12-18T09:11:32;-3.60;99.90
16781;DHT22;8507;50.056;8.248;2022-12-18T09:14:00;-3.70;99.90
16781;DHT22;8507;50.056;8.248;2022-12-18T09:16:26;-4.50;99.90
16781;DHT22;8507;50.056;8.248;2022-12-18T09:18:56;-4.30;99.90
16781;DHT22;8507;50.056;8.248;2022-12-18T09:21:26;-4.10;99.90
16781;DHT22;8507;50.056;8.248;2022-12-18T09:23:54;-4.00;99.90
16781;DHT22;8507;50.056;8.248;2022-12-18T09:26:23;-3.60;99.90
16781;DHT22;8507;50.056;8.248;2022-12-18T09:28:49;-3.40;99.90
16781;DHT22;8507;50.056;8.248;2022-12-18T09:31:16;-3.40;99.90
16781;DHT22;8507;50.056;8.248;2022-12-18T09:33:42;-3.40;99.90
16781;DHT22;8507;50.056;8.248;2022-12-18T09:36:10;-3.10;99.90
16781;DHT22;8507;50.056;8.248;2022-12-18T09:38:36;-2.70;99.90
16781;DHT22;8507;50.056;8.248;2022-12-18T09:43:58;-2.40;99.90
16781;DHT22;8507;50.056;8.248;2022-12-18T09:46:41;-2.80;99.90
16781;DHT22;8507;50.056;8.248;2022-12-18T09:49:13;-2.70;99.90
16781;DHT22;8507;50.056;8.248;2022-12-18T09:54:43;-2.40;99.90
16781;DHT22;8507;50.056;8.248;2022-12-18T09:57:15;-2.50;99.90
16781;DHT22;8507;50.056;8.248;2022-12-18T09:59:45;-2.60;99.90
16781;DHT22;8507;50.056;8.248;2022-12-18T10:02:18;-2.50;99.90
16781;DHT22;8507;50.056;8.248;2022-12-18T10:07:36;-2.90;99.90
16781;DHT22;8507;50.056;8.248;2022-12-18T10:10:31;-3.00;99.90
16781;DHT22;8507;50.056;8.248;2022-12-18T10:15:45;-3.30;99.90
16781;DHT22;8507;50.056;8.248;2022-12-18T10:21:18;-2.60;99.90
16781;DHT22;8507;50.056;8.248;2022-12-18T10:26:14;-2.20;99.90
16781;DHT22;8507;50.056;8.248;2022-12-18T10:28:40;-2.70;99.90
16781;DHT22;8507;50.056;8.248;2022-12-18T10:31:12;-2.60;99.90
16781;DHT22;8507;50.056;8.248;2022-12-18T10:33:39;-2.50;99.90
16781;DHT22;8507;50.056;8.248;2022-12-18T10:36:06;-2.40;99.90
16781;DHT22;8507;50.056;8.248;2022-12-18T10:38:32;-2.50;99.90
16781;DHT22;8507;50.056;8.248;2022-12-18T10:43:44;-2.80;99.90
16781;DHT22;8507;50.056;8.248;2022-12-18T10:51:29;-2.40;99.90
16781;DHT22;8507;50.056;8.248;2022-12-18T10:54:16;-2.30;99.90
16781;DHT22;8507;50.056;8.248;2022-12-18T10:56:43;-2.10;99.90
16781;DHT22;8507;50.056;8.248;2022-12-18T10:59:10;-2.50;99.90
16781;DHT22;8507;50.056;8.248;2022-12-18T11:01:51;-2.40;99.90
16781;DHT22;8507;50.056;8.248;2022-12-18T11:04:21;-2.20;99.90
16781;DHT22;8507;50.056;8.248;2022-12-18T11:07:01;-2.50;99.90
16781;DHT22;8507;50.056;8.248;2022-12-18T11:09:40;-3.00;99.90
16781;DHT22;8507;50.056;8.248;2022-12-18T11:12:17;-2.90;99.90
16781;DHT22;8507;50.056;8.248;2022-12-18T11:14:53;-2.80;99.90
16781;DHT22;8507;50.056;8.248;2022-12-18T11:17:26;-2.50;99.90
16781;DHT22;8507;50.056;8.248;2022-12-18T11:19:56;-2.30;99.90
16781;DHT22;8507;50.056;8.248;2022-12-18T11:22:31;-2.10;99.90
16781;DHT22;8507;50.056;8.248;2022-12-18T11:27:25;-2.20;99.90
16781;DHT22;8507;50.056;8.248;2022-12-18T11:29:51;-2.40;99.90
16781;DHT22;8507;50.056;8.248;2022-12-18T11:35:38;-2.10;99.90
16781;DHT22;8507;50.056;8.248;2022-12-18T11:38:26;-2.70;99.90
16781;DHT22;8507;50.056;8.248;2022-12-18T11:43:41;-2.80;99.90
16781;DHT22;8507;50.056;8.248;2022-12-18T11:46:12;-2.40;99.90
16781;DHT22;8507;50.056;8.248;2022-12-18T11:48:55;-2.50;99.90
16781;DHT22;8507;50.056;8.248;2022-12-18T11:52:01;-2.70;99.90
16781;DHT22;8507;50.056;8.248;2022-12-18T11:54:28;-2.40;99.90
16781;DHT22;8507;50.056;8.248;2022-12-18T11:59:56;-2.60;99.90
16781;DHT22;8507;50.056;8.248;2022-12-18T12:11:42;-2.70;99.90
16781;DHT22;8507;50.056;8.248;2022-12-18T12:22:05;-2.30;99.90
16781;DHT22;8507;50.056;8.248;2022-12-18T12:27:47;-2.30;99.90
16781;DHT22;8507;50.056;8.248;2022-12-18T12:40:27;-2.60;99.90
16781;DHT22;8507;50.056;8.248;2022-12-18T12:42:59;-2.60;99.90
16781;DHT22;8507;50.056;8.248;2022-12-18T12:45:47;-2.40;99.90
16781;DHT22;8507;50.056;8.248;2022-12-18T12:49:03;-2.20;99.90
16781;DHT22;8507;50.056;8.248;2022-12-18T12:54:08;-2.00;99.90
16781;DHT22;8507;50.056;8.248;2022-12-18T12:56:48;-2.70;99.90
16781;DHT22;8507;50.056;8.248;2022-12-18T12:59:21;-3.00;99.90
16781;DHT22;8507;50.056;8.248;2022-12-18T13:04:52;-3.50;99.90
16781;DHT22;8507;50.056;8.248;2022-12-18T13:07:20;-3.60;99.90
16781;DHT22;8507;50.056;8.248;2022-12-18T13:12:50;-3.30;99.90
16781;DHT22;8507;50.056;8.248;2022-12-18T13:18:21;-3.80;99.90
16781;DHT22;8507;50.056;8.248;2022-12-18T13:31:58;-2.80;99.90
16781;DHT22;8507;50.056;8.248;2022-12-18T13:34:21;-2.60;99.90
16781;DHT22;8507;50.056;8.248;2022-12-18T13:36:48;-2.80;99.90
16781;DHT22;8507;50.056;8.248;2022-12-18T13:41:41;-3.50;99.90
16781;DHT22;8507;50.056;8.248;2022-12-18T13:44:34;-3.70;99.90
16781;DHT22;8507;50.056;8.248;2022-12-18T13:47:02;-4.00;99.90
16781;DHT22;8507;50.056;8.248;2022-12-18T13:49:44;-3.90;99.90
16781;DHT22;8507;50.056;8.248;2022-12-18T13:52:22;-3.80;99.90
16781;DHT22;8507;50.056;8.248;2022-12-18T13:54:57;-3.80;99.90
16781;DHT22;8507;50.056;8.248;2022-12-18T13:57:28;-3.80;99.90
16781;DHT22;8507;50.056;8.248;2022-12-18T13:59:55;-3.90;99.90
16781;DHT22;8507;50.056;8.248;2022-12-18T14:02:25;-3.70;99.90
16781;DHT22;8507;50.056;8.248;2022-12-18T14:04:51;-3.90;99.90
16781;DHT22;8507;50.056;8.248;2022-12-18T14:07:25;-3.60;99.90
16781;DHT22;8507;50.056;8.248;2022-12-18T14:09:56;-3.60;99.90
16781;DHT22;8507;50.056;8.248;2022-12-18T14:12:24;-3.70;99.90
16781;DHT22;8507;50.056;8.248;2022-12-18T14:18:09;-3.90;99.90
16781;DHT22;8507;50.056;8.248;2022-12-18T14:20:43;-3.80;99.90
16781;DHT22;8507;50.056;8.248;2022-12-18T14:25:53;-3.50;99.90
16781;DHT22;8507;50.056;8.248;2022-12-18T14:28:18;-3.80;99.90
16781;DHT22;8507;50.056;8.248;2022-12-18T14:30:45;-3.70;99.90
16781;DHT22;8507;50.056;8.248;2022-12-18T14:33:15;-3.60;99.90
16781;DHT22;8507;50.056;8.248;2022-12-18T14:35:56;-3.60;99.90
16781;DHT22;8507;50.056;8.248;2022-12-18T14:38:26;-3.60;99.90
16781;DHT22;8507;50.056;8.248;2022-12-18T14:41:09;-3.60;99.90
16781;DHT22;8507;50.056;8.248;2022-12-18T14:43:36;-3.60;99.90
16781;DHT22;8507;50.056;8.248;2022-12-18T14:46:05;-3.80;99.90
16781;DHT22;8507;50.056;8.248;2022-12-18T14:48:40;-3.90;99.90
16781;DHT22;8507;50.056;8.248;2022-12-18T14:51:15;-3.80;99.90
16781;DHT22;8507;50.056;8.248;2022-12-18T14:53:45;-3.60;99.90
16781;DHT22;8507;50.056;8.248;2022-12-18T14:56:22;-3.70;99.90
16781;DHT22;8507;50.056;8.248;2022-12-18T14:58:52;-3.80;99.90
16781;DHT22;8507;50.056;8.248;2022-12-18T15:01:33;-3.90;99.90
16781;DHT22;8507;50.056;8.248;2022-12-18T15:04:00;-3.80;99.90
16781;DHT22;8507;50.056;8.248;2022-12-18T15:06:30;-3.90;99.90
16781;DHT22;8507;50.056;8.248;2022-12-18T15:08:57;-3.80;99.90
16781;DHT22;8507;50.056;8.248;2022-12-18T15:11:32;-4.00;99.90
16781;DHT22;8507;50.056;8.248;2022-12-18T15:13:58;-4.00;99.90
16781;DHT22;8507;50.056;8.248;2022-12-18T15:16:25;-4.00;99.90
16781;DHT22;8507;50.056;8.248;2022-12-18T15:18:50;-4.10;99.90
16781;DHT22;8507;50.056;8.248;2022-12-18T15:21:18;-4.00;99.90
16781;DHT22;8507;50.056;8.248;2022-12-18T15:26:11;-4.10;99.90
16781;DHT22;8507;50.056;8.248;2022-12-18T15:31:31;-4.00;99.90
16781;DHT22;8507;50.056;8.248;2022-12-18T15:36:24;-4.00;99.90
16781;DHT22;8507;50.056;8.248;2022-12-18T15:38:55;-4.00;99.90
16781;DHT22;8507;50.056;8.248;2022-12-18T15:41:22;-4.10;99.90
16781;DHT22;8507;50.056;8.248;2022-12-18T15:43:49;-4.10;99.90
16781;DHT22;8507;50.056;8.248;2022-12-18T15:46:20;-4.00;99.90
16781;DHT22;8507;50.056;8.248;2022-12-18T15:48:56;-4.00;99.90
16781;DHT22;8507;50.056;8.248;2022-12-18T15:51:33;-4.00;99.90
16781;DHT22;8507;50.056;8.248;2022-12-18T15:54:02;-4.00;99.90
16781;DHT22;8507;50.056;8.248;2022-12-18T15:56:31;-4.00;99.90
16781;DHT22;8507;50.056;8.248;2022-12-18T15:59:17;-4.00;99.90
16781;DHT22;8507;50.056;8.248;2022-12-18T16:01:48;-4.00;99.90
16781;DHT22;8507;50.056;8.248;2022-12-18T16:04:16;-4.00;99.90
16781;DHT22;8507;50.056;8.248;2022-12-18T16:06:42;-4.00;99.90
16781;DHT22;8507;50.056;8.248;2022-12-18T16:09:08;-3.90;99.90
16781;DHT22;8507;50.056;8.248;2022-12-18T16:11:36;-3.90;99.90
16781;DHT22;8507;50.056;8.248;2022-12-18T16:16:41;-3.90;99.90
16781;DHT22;8507;50.056;8.248;2022-12-18T16:19:07;-3.80;99.90
16781;DHT22;8507;50.056;8.248;2022-12-18T16:21:33;-3.80;99.90
16781;DHT22;8507;50.056;8.248;2022-12-18T16:23:58;-3.70;99.90
16781;DHT22;8507;50.056;8.248;2022-12-18T16:26:24;-3.60;99.90
16781;DHT22;8507;50.056;8.248;2022-12-18T16:28:49;-3.40;99.90
16781;DHT22;8507;50.056;8.248;2022-12-18T16:31:15;-3.50;99.90
16781;DHT22;8507;50.056;8.248;2022-12-18T16:33:40;-3.50;99.90
16781;DHT22;8507;50.056;8.248;2022-12-18T16:36:06;-3.60;99.90
16781;DHT22;8507;50.056;8.248;2022-12-18T16:38:33;-3.50;99.90
16781;DHT22;8507;50.056;8.248;2022-12-18T16:40:58;-3.40;99.90
16781;DHT22;8507;50.056;8.248;2022-12-18T16:43:42;-3.40;99.90
16781;DHT22;8507;50.056;8.248;2022-12-18T16:46:08;-3.40;99.90
16781;DHT22;8507;50.056;8.248;2022-12-18T16:48:33;-3.20;99.90
16781;DHT22;8507;50.056;8.248;2022-12-18T16:51:00;-3.20;99.90
16781;DHT22;8507;50.056;8.248;2022-12-18T16:53:27;-3.00;99.90
16781;DHT22;8507;50.056;8.248;2022-12-18T16:55:54;-3.00;99.90
16781;DHT22;8507;50.056;8.248;2022-12-18T16:58:20;-2.90;99.90
16781;DHT22;8507;50.056;8.248;2022-12-18T17:00:46;-3.10;99.90
16781;DHT22;8507;50.056;8.248;2022-12-18T17:03:11;-3.00;99.90
16781;DHT22;8507;50.056;8.248;2022-12-18T17:05:37;-2.80;99.90
16781;DHT22;8507;50.056;8.248;2022-12-18T17:08:02;-2.70;99.90
16781;DHT22;8507;50.056;8.248;2022-12-18T17:10:28;-2.60;99.90
16781;DHT22;8507;50.056;8.248;2022-12-18T17:12:53;-2.60;99.90
16781;DHT22;8507;50.056;8.248;2022-12-18T17:15:19;-2.60;99.90
16781;DHT22;8507;50.056;8.248;2022-12-18T17:17:45;-2.60;99.90
16781;DHT22;8507;50.056;8.248;2022-12-18T17:20:10;-2.60;99.90
16781;DHT22;8507;50.056;8.248;2022-12-18T17:22:36;-2.60;99.90
16781;DHT22;8507;50.056;8.248;2022-12-18T17:25:01;-2.70;99.90
16781;DHT22;8507;50.056;8.248;2022-12-18T17:27:27;-2.70;99.90
16781;DHT22;8507;50.056;8.248;2022-12-18T17:29:54;-2.90;99.90
16781;DHT22;8507;50.056;8.248;2022-12-18T17:32:19;-3.00;99.90
16781;DHT22;8507;50.056;8.248;2022-12-18T17:34:45;-3.00;99.90
16781;DHT22;8507;50.056;8.248;2022-12-18T17:37:11;-3.00;99.90
16781;DHT22;8507;50.056;8.248;2022-12-18T17:39:37;-2.90;99.90
16781;DHT22;8507;50.056;8.248;2022-12-18T17:42:03;-2.80;99.90
16781;DHT22;8507;50.056;8.248;2022-12-18T17:44:28;-2.70;99.90
16781;DHT22;8507;50.056;8.248;2022-12-18T17:46:54;-2.80;99.90
16781;DHT22;8507;50.056;8.248;2022-12-18T17:49:19;-2.90;99.90
16781;DHT22;8507;50.056;8.248;2022-12-18T17:51:46;-2.90;99.90
16781;DHT22;8507;50.056;8.248;2022-12-18T17:54:12;-2.80;99.90
16781;DHT22;8507;50.056;8.248;2022-12-18T17:56:38;-2.80;99.90
16781;DHT22;8507;50.056;8.248;2022-12-18T17:59:04;-2.70;99.90
16781;DHT22;8507;50.056;8.248;2022-12-18T18:01:31;-2.60;99.90
16781;DHT22;8507;50.056;8.248;2022-12-18T18:03:56;-2.60;99.90
16781;DHT22;8507;50.056;8.248;2022-12-18T18:06:24;-2.60;99.90